Barry, United Kingdom
Current Conditions -  °F | °C
As of 3:20 PM on Thursday 23 Oct 2014 (Local Time) from EGFF Reporting Station
Drizzle Drizzle  
Wind Chill: 59°   Ceiling: 700
Heat Index: 59°   Visibility: 3mi
Dew Point: 57°   Wind: 10mph
Humidity: 94%   Direction: 260°W
Pressure: 30.03"   Gusts: NA
Location:  51.41°N, 3.27°W
Report Text: EGFF 231420Z 26009KT 4800 DZ BKN007 BKN018 15/14 Q1017
Loading
Personal Weather Stations






























Interactive Weather Map
Tropical Storm Tracking
New forecast layout! Learn more

10-Day Weather Forecast

Advertisements
Track Severe Weather on mobile